EST,Max TemperatureF,Mean TemperatureF,Min TemperatureF,Max Dew PointF,MeanDew PointF,Min DewpointF,Max Humidity, Mean Humidity, Min Humidity, Max Sea Level PressureIn, Mean Sea Level PressureIn, Min Sea Level PressureIn, Max VisibilityMiles, Mean VisibilityMiles, Min VisibilityMiles, Max Wind SpeedMPH, Mean Wind SpeedMPH, Max Gust SpeedMPH,PrecipitationIn, CloudCover, Events, WindDirDegrees
2012-11-1,51,48,46,39,36,34,66,61,58,29.69,29.64,29.60,10,10,10,15,10,21,0.00,5,,274
2012-11-2,51,48,46,37,34,30,66,58,47,29.83,29.72,29.67,10,10,10,20,13,30,0.00,6,,288
2012-11-3,46,45,44,34,30,27,62,53,49,29.99,29.91,29.83,10,10,10,17,12,29,0.00,8,,308
2012-11-4,48,44,41,30,29,27,61,55,49,30.04,30.00,29.96,10,10,10,13,8,22,0.00,5,,321
2012-11-5,44,38,33,28,27,23,65,57,49,30.16,30.04,29.97,10,10,10,14,8,20,0.00,5,,342
2012-11-6,48,40,33,32,27,19,65,58,50,30.17,30.09,29.93,10,10,10,18,10,24,0.00,3,,24
2012-11-7,42,38,33,37,33,30,93,82,61,29.92,29.82,29.78,10,9,3,16,13,29,0.53,8,,353
2012-11-8,48,42,35,32,26,19,87,52,34,29.96,29.83,29.78,10,10,10,16,11,24,0.02,3,,318
2012-11-9,51,44,37,37,30,19,87,59,39,30.22,30.10,29.96,10,10,10,16,9,23,0.00,0,,302
2012-11-10,60,46,33,46,38,30,93,75,42,30.40,30.31,30.21,10,8,2,8,2,,0.00,1,,175
2012-11-11,62,54,46,52,49,45,94,79,59,30.46,30.43,30.38,10,9,3,17,9,22,0.00,0,,170
2012-11-12,66,58,51,57,53,48,94,82,68,30.44,30.43,30.41,10,9,4,20,10,24,0.00,1,,165
2012-11-13,60,50,39,57,42,30,88,80,61,30.42,30.32,30.18,10,9,2,15,10,21,0.17,8,,328
2012-11-14,48,40,33,32,29,25,75,60,46,30.49,30.44,30.39,10,10,10,15,10,21,0.00,3,,8
2012-11-15,48,44,39,34,32,28,76,63,57,30.38,30.32,30.25,10,10,10,12,8,,0.00,7,,13
2012-11-16,48,40,33,34,29,25,81,64,40,30.40,30.31,30.25,10,10,10,10,5,,0.00,1,,352
2012-11-17,51,42,33,39,33,25,81,70,58,30.57,30.51,30.40,10,10,10,21,8,28,0.00,2,,17
2012-11-18,53,46,39,39,38,34,87,71,58,30.58,30.52,30.45,10,10,10,20,10,28,0.00,5,,25
2012-11-19,55,50,46,45,42,39,87,77,67,30.44,30.30,30.17,10,10,10,20,12,25,0.00,6,,28
2012-11-20,53,47,41,43,39,36,82,74,58,30.17,30.12,30.07,10,10,10,14,8,21,0.00,3,,10
2012-11-21,53,46,39,39,36,32,87,72,47,30.20,30.14,30.09,10,10,10,14,7,20,0.00,1,,22
2012-11-22,57,47,37,43,38,32,93,78,59,30.21,30.17,30.12,10,9,2,14,7,16,0.00,0,,28
2012-11-23,55,44,33,45,39,30,93,82,54,30.12,29.93,29.71,10,8,0,10,2,,0.00,3,,204
2012-11-24,51,44,37,39,23,19,62,47,39,29.97,29.84,29.71,10,10,10,22,15,38,0.00,3,,297
2012-11-25,42,37,32,27,21,19,80,52,42,30.03,29.98,29.94,10,10,10,18,11,26,0.00,1,,264
2012-11-26,48,39,30,36,28,25,81,66,43,30.24,30.13,29.99,10,10,10,10,4,17,0.00,0,,284
2012-11-27,50,41,32,46,37,27,93,82,66,30.23,30.17,30.09,10,8,4,12,5,17,0.00,8,,35
2012-11-28,41,34,28,34,27,21,87,70,49,30.35,30.24,30.16,10,10,10,15,7,24,0.00,2,,326
2012-11-29,44,35,26,30,26,21,80,60,49,30.42,30.36,30.32,10,10,10,14,5,20,0.00,0,,272
2012-11-30,53,42,30,41,34,28,93,76,50,30.37,30.35,30.31,10,9,2,7,4,,0.00,1,,182